createdAt,value
2018-06-08T00:00:13.491Z,27.57
2018-06-08T00:02:43.493Z,29.43
2018-06-08T00:05:16.130Z,26.30
2018-06-08T00:07:48.709Z,27.60
2018-06-08T00:10:18.693Z,28.73
2018-06-08T00:12:52.015Z,26.30
2018-06-08T00:15:24.104Z,28.17
2018-06-08T00:17:54.031Z,29.33
2018-06-08T00:20:23.882Z,28.57
2018-06-08T00:22:53.829Z,29.70
2018-06-08T00:28:33.418Z,27.77
2018-06-08T00:31:04.681Z,27.57
2018-06-08T00:33:34.656Z,27.27
2018-06-08T00:36:04.772Z,28.40
2018-06-08T00:38:37.116Z,30.90
2018-06-08T00:44:11.184Z,26.80
2018-06-08T00:46:55.411Z,28.10
2018-06-08T00:49:40.471Z,29.30
2018-06-08T00:52:15.962Z,27.77
2018-06-08T01:01:05.407Z,29.17
2018-06-08T01:03:35.723Z,29.00
2018-06-08T01:06:07.515Z,30.63
2018-06-08T01:08:37.561Z,31.53
2018-06-08T01:11:07.511Z,29.57
2018-06-08T01:13:37.595Z,31.00
2018-06-08T01:16:07.801Z,29.70
2018-06-08T01:18:37.461Z,30.80
2018-06-08T01:21:10.706Z,31.23
2018-06-08T01:23:45.293Z,29.17
2018-06-08T01:26:15.530Z,28.80
2018-06-08T01:28:45.391Z,29.60
2018-06-08T01:31:15.300Z,32.67
2018-06-08T01:33:45.177Z,29.73
2018-06-08T01:36:17.079Z,27.73
2018-06-08T01:45:35.954Z,30.47
2018-06-08T01:51:15.747Z,32.97
2018-06-08T01:53:45.658Z,33.40
2018-06-08T01:56:20.988Z,33.93
2018-06-08T02:01:35.629Z,33.30
2018-06-08T02:04:07.280Z,32.27
2018-06-08T02:06:38.618Z,33.07
2018-06-08T02:09:09.167Z,32.73
2018-06-08T02:11:39.110Z,32.77
2018-06-08T02:14:12.694Z,31.30
2018-06-08T02:16:49.334Z,29.27
2018-06-08T02:19:19.450Z,31.53
2018-06-08T02:21:49.500Z,29.50
2018-06-08T02:24:19.531Z,32.40
2018-06-08T02:26:49.603Z,24.37
2018-06-08T02:29:19.717Z,30.83
2018-06-08T02:34:55.669Z,32.50
2018-06-08T02:37:27.198Z,37.70
2018-06-08T02:39:58.741Z,38.53
2018-06-08T02:42:28.838Z,40.17
2018-06-08T02:45:02.418Z,40.17
2018-06-08T02:50:16.699Z,41.63
2018-06-08T02:52:46.511Z,42.03
2018-06-08T02:55:16.498Z,40.13
2018-06-08T02:57:46.315Z,39.30
2018-06-08T03:00:18.209Z,36.53
2018-06-08T03:02:50.111Z,39.57
2018-06-08T03:05:20.178Z,38.27
2018-06-08T03:07:50.070Z,38.90
2018-06-08T03:10:23.260Z,41.90
2018-06-08T03:12:57.058Z,43.43
2018-06-08T03:15:27.402Z,43.27
2018-06-08T03:21:02.950Z,42.77
2018-06-08T03:23:32.671Z,39.67
2018-06-08T03:26:02.668Z,46.70
2018-06-08T03:28:32.746Z,45.63
2018-06-08T03:37:15.460Z,51.03
2018-06-08T03:39:57.774Z,49.70
2018-06-08T03:42:27.631Z,50.63
2018-06-08T03:48:30.831Z,50.50
2018-06-08T03:57:18.716Z,55.33
2018-06-08T03:59:48.748Z,56.50
2018-06-08T04:02:18.931Z,57.50
2018-06-08T04:07:59.007Z,56.37
2018-06-08T04:10:28.859Z,52.87
2018-06-08T04:12:58.699Z,59.90
2018-06-08T04:18:48.695Z,58.87
2018-06-08T04:25:44.921Z,59.70
2018-06-08T04:28:15.680Z,63.80
2018-06-08T04:30:59.067Z,64.47
2018-06-08T04:33:28.988Z,58.33
2018-06-08T04:36:02.411Z,59.50
2018-06-08T04:38:32.446Z,67.47
2018-06-08T04:41:07.361Z,65.97
2018-06-08T04:57:21.960Z,69.73
2018-06-08T04:59:52.387Z,66.43
2018-06-08T05:02:22.379Z,65.57
2018-06-08T05:04:52.415Z,71.23
2018-06-08T05:07:24.434Z,67.53
2018-06-08T05:09:54.561Z,73.13
2018-06-08T05:12:24.667Z,70.50
2018-06-08T05:14:54.470Z,79.83
2018-06-08T05:20:24.824Z,72.73
2018-06-08T05:22:54.952Z,75.57
2018-06-08T05:25:24.799Z,74.40
2018-06-08T05:27:54.732Z,76.30
2018-06-08T05:30:36.853Z,76.03
2018-06-08T05:36:36.583Z,72.67
2018-06-08T05:39:09.528Z,78.80
2018-06-08T05:41:39.335Z,70.87
2018-06-08T05:44:10.694Z,78.87
2018-06-08T05:46:41.079Z,81.53
2018-06-08T05:49:10.984Z,77.37
2018-06-08T05:51:40.908Z,83.27
2018-06-08T05:54:10.815Z,80.87
2018-06-08T06:03:03.237Z,83.93
2018-06-08T06:05:45.356Z,81.27
2018-06-08T06:08:30.641Z,72.47
2018-06-08T06:11:00.575Z,83.60
2018-06-08T06:13:30.448Z,84.83
2018-06-08T06:16:01.713Z,81.60
2018-06-08T06:18:31.549Z,80.83
2018-06-08T06:21:01.761Z,84.77
2018-06-08T06:23:32.085Z,81.30
2018-06-08T06:26:01.953Z,80.27
2018-06-08T06:28:32.718Z,77.07
2018-06-08T06:31:02.623Z,82.83
2018-06-08T06:33:32.370Z,71.83
2018-06-08T06:36:02.219Z,77.90
2018-06-08T06:38:32.187Z,79.57
2018-06-08T06:41:05.865Z,82.13
2018-06-08T06:43:36.403Z,76.13
2018-06-08T06:46:06.849Z,76.90
2018-06-08T06:48:39.060Z,72.43
2018-06-08T06:51:09.088Z,76.03
2018-06-08T06:53:39.332Z,65.20
2018-06-08T06:56:10.133Z,64.80
2018-06-08T06:58:39.886Z,53.43
2018-06-08T07:01:09.622Z,53.00
2018-06-08T07:03:52.643Z,47.67
2018-06-08T07:06:22.613Z,45.13
2018-06-08T07:08:52.609Z,41.83
2018-06-08T07:11:22.674Z,42.33
2018-06-08T07:13:53.388Z,41.83
2018-06-08T07:16:23.301Z,42.30
2018-06-08T07:19:07.180Z,40.57
2018-06-08T07:21:37.194Z,40.70
2018-06-08T07:24:07.097Z,43.73
2018-06-08T07:26:37.221Z,40.50
2018-06-08T07:29:10.207Z,41.57
2018-06-08T07:31:40.338Z,38.87
2018-06-08T07:34:23.231Z,36.90
2018-06-08T07:36:57.496Z,38.70
2018-06-08T07:39:27.514Z,37.27
2018-06-08T07:42:11.239Z,36.53
2018-06-08T07:44:41.416Z,35.30
2018-06-08T07:47:11.248Z,35.70
2018-06-08T07:49:41.000Z,35.30
2018-06-08T07:52:10.864Z,34.00
2018-06-08T07:54:40.684Z,33.33
2018-06-08T07:57:10.508Z,33.97
2018-06-08T07:59:40.595Z,32.03
2018-06-08T08:02:10.351Z,32.20
2018-06-08T08:04:40.521Z,31.30
2018-06-08T08:07:10.649Z,29.47
2018-06-08T08:09:42.666Z,30.13
2018-06-08T08:12:12.863Z,29.47
2018-06-08T08:14:43.702Z,27.97
2018-06-08T08:17:13.629Z,28.97
2018-06-08T08:19:43.672Z,26.80
2018-06-08T08:22:13.654Z,25.83
2018-06-08T08:24:45.198Z,25.93
2018-06-08T08:27:16.327Z,25.03
2018-06-08T08:29:46.384Z,23.10
2018-06-08T08:32:20.493Z,23.67
2018-06-08T08:34:50.365Z,24.70
2018-06-08T08:37:20.563Z,27.33
2018-06-08T08:39:50.370Z,29.70
2018-06-08T08:42:21.103Z,29.63
2018-06-08T08:44:52.403Z,27.93
2018-06-08T08:47:22.351Z,29.83
2018-06-08T08:49:54.733Z,28.37
2018-06-08T08:52:24.467Z,32.10
2018-06-08T08:54:56.181Z,31.80
2018-06-08T08:57:26.803Z,29.97
2018-06-08T08:59:56.596Z,31.00
2018-06-08T09:02:29.714Z,31.53
2018-06-08T09:04:59.568Z,30.10
2018-06-08T09:07:36.539Z,29.47
2018-06-08T09:10:07.672Z,32.40
2018-06-08T09:12:45.714Z,29.77
2018-06-08T09:15:15.643Z,31.67
2018-06-08T09:17:46.354Z,30.50
2018-06-08T09:20:17.912Z,31.90
2018-06-08T09:22:47.668Z,32.53
2018-06-08T09:25:21.747Z,34.07
2018-06-08T09:27:51.523Z,33.53
2018-06-08T09:30:21.305Z,32.43
2018-06-08T09:32:51.021Z,35.13
2018-06-08T09:35:21.994Z,31.27
2018-06-08T09:37:58.806Z,33.53
2018-06-08T09:40:28.770Z,32.93
2018-06-08T09:42:58.468Z,30.20
2018-06-08T09:45:28.291Z,32.83
2018-06-08T09:47:59.112Z,32.97
2018-06-08T09:50:29.777Z,31.13
2018-06-08T09:52:59.690Z,31.63
2018-06-08T09:58:45.684Z,34.50
2018-06-08T10:01:15.456Z,34.40
2018-06-08T10:03:45.306Z,33.50
2018-06-08T10:06:15.104Z,33.20
2018-06-08T10:08:45.449Z,34.13
2018-06-08T10:11:15.380Z,32.20
2018-06-08T10:13:47.771Z,30.97
2018-06-08T10:16:29.850Z,34.50
2018-06-08T10:19:10.739Z,32.47
2018-06-08T10:22:12.624Z,32.93
2018-06-08T10:28:05.208Z,31.60
2018-06-08T10:36:13.390Z,35.60
2018-06-08T10:38:53.225Z,38.10
2018-06-08T10:41:33.121Z,38.40
2018-06-08T10:51:57.772Z,38.67
2018-06-08T10:54:29.082Z,40.77
2018-06-08T10:57:00.044Z,40.23
2018-06-08T10:59:40.070Z,41.60
2018-06-08T11:02:25.968Z,37.10
2018-06-08T11:05:02.619Z,38.77
2018-06-08T11:07:59.689Z,40.67
2018-06-08T11:10:30.218Z,39.47
2018-06-08T11:13:08.827Z,42.63
2018-06-08T11:18:25.904Z,42.23
2018-06-08T11:20:55.911Z,45.10
2018-06-08T11:23:26.708Z,43.30
2018-06-08T11:25:56.924Z,45.60
2018-06-08T11:28:29.282Z,46.03
2018-06-08T11:30:58.113Z,42.20
2018-06-08T11:33:27.983Z,46.40
2018-06-08T11:35:57.920Z,45.33
2018-06-08T11:38:27.895Z,48.00
2018-06-08T11:41:00.708Z,48.90
2018-06-08T11:43:39.561Z,50.37
2018-06-08T11:46:10.447Z,50.27
2018-06-08T11:48:40.331Z,56.63
2018-06-08T11:51:11.335Z,53.10
2018-06-08T11:53:42.593Z,55.77
2018-06-08T12:01:28.098Z,56.73
2018-06-08T12:04:03.459Z,59.00
2018-06-08T12:06:38.099Z,64.30
2018-06-08T12:09:10.078Z,69.67
2018-06-08T12:11:40.188Z,68.00
2018-06-08T12:14:10.243Z,64.13
2018-06-08T12:16:40.730Z,57.97
2018-06-08T12:19:10.769Z,56.50
2018-06-08T12:21:40.879Z,56.03
2018-06-08T12:24:10.853Z,57.73
2018-06-08T12:26:40.622Z,57.67
2018-06-08T12:29:10.859Z,59.13
2018-06-08T12:31:47.057Z,54.80
2018-06-08T12:34:17.413Z,52.70
2018-06-08T12:42:16.424Z,51.63
2018-06-08T12:44:50.463Z,54.20
2018-06-08T12:47:21.178Z,49.43
2018-06-08T12:49:50.912Z,49.47
2018-06-08T12:52:20.791Z,47.10
2018-06-08T12:54:50.883Z,49.00
2018-06-08T12:57:20.791Z,47.97
2018-06-08T12:59:51.498Z,45.13
2018-06-08T13:02:21.620Z,42.73
2018-06-08T13:04:51.844Z,44.13
2018-06-08T13:07:21.789Z,44.00
2018-06-08T13:09:51.810Z,41.47
2018-06-08T13:12:21.815Z,38.57
2018-06-08T13:14:51.828Z,40.80
2018-06-08T13:17:22.493Z,42.23
2018-06-08T13:19:52.530Z,42.67
2018-06-08T13:22:24.506Z,43.60
2018-06-08T13:25:05.367Z,43.47
2018-06-08T13:27:42.216Z,40.37
2018-06-08T13:30:19.927Z,38.83
2018-06-08T13:32:50.260Z,37.40
2018-06-08T13:35:20.437Z,39.53
2018-06-08T13:37:50.421Z,40.20
2018-06-08T13:40:29.368Z,38.23
2018-06-08T13:43:06.887Z,40.00
2018-06-08T13:45:39.849Z,38.87
2018-06-08T13:48:09.654Z,37.10
2018-06-08T13:50:40.763Z,35.13
2018-06-08T13:53:10.765Z,35.67
2018-06-08T13:55:40.978Z,32.37
2018-06-08T13:58:10.872Z,33.10
2018-06-08T14:00:40.843Z,32.47
2018-06-08T14:03:10.683Z,29.00
2018-06-08T14:05:40.519Z,28.80
2018-06-08T14:08:10.383Z,27.80
2018-06-08T14:10:40.130Z,29.40
2018-06-08T14:13:09.915Z,27.87
2018-06-08T14:15:39.722Z,29.47
2018-06-08T14:18:09.784Z,22.77
2018-06-08T14:20:39.667Z,20.27
2018-06-08T14:23:09.825Z,17.63
2018-06-08T14:25:39.747Z,18.10
2018-06-08T14:28:09.844Z,18.57
2018-06-08T14:30:39.850Z,20.30
2018-06-08T14:33:09.943Z,19.40
2018-06-08T14:35:40.155Z,18.30
2018-06-08T14:38:10.154Z,20.23
2018-06-08T14:40:40.367Z,22.93
2018-06-08T14:43:11.208Z,22.70
2018-06-08T14:45:41.615Z,20.97
2018-06-08T14:48:12.055Z,21.63
2018-06-08T14:50:41.818Z,21.40
2018-06-08T14:53:16.028Z,21.60
2018-06-08T14:55:45.965Z,22.23
2018-06-08T14:58:18.671Z,20.07
2018-06-08T15:00:51.555Z,23.60
2018-06-08T15:03:29.707Z,21.50
2018-06-08T15:06:03.700Z,20.37
2018-06-08T15:08:33.768Z,20.67
2018-06-08T15:11:06.327Z,20.63
2018-06-08T15:14:02.752Z,18.20
2018-06-08T15:16:32.862Z,17.80
2018-06-08T15:19:03.301Z,18.90
2018-06-08T15:21:34.135Z,22.60
2018-06-08T15:24:04.603Z,23.10
2018-06-08T15:26:36.128Z,22.73
2018-06-08T15:29:07.016Z,21.07
2018-06-08T15:31:37.281Z,20.60
2018-06-08T15:34:09.741Z,21.20
2018-06-08T15:36:39.434Z,21.57
2018-06-08T15:39:09.324Z,23.90
2018-06-08T15:41:38.962Z,24.53
2018-06-08T15:44:08.656Z,22.63
2018-06-08T15:46:44.051Z,23.50
2018-06-08T15:49:14.123Z,26.20
2018-06-08T15:51:44.107Z,29.00
2018-06-08T15:54:15.972Z,26.53
2018-06-08T15:56:46.083Z,26.63
2018-06-08T15:59:17.537Z,26.60
2018-06-08T16:02:03.870Z,24.50
2018-06-08T16:04:34.481Z,24.87
2018-06-08T16:07:04.988Z,26.07
2018-06-08T16:09:35.042Z,25.30
2018-06-08T16:12:05.151Z,24.30
2018-06-08T16:14:35.210Z,27.23
2018-06-08T16:17:05.504Z,26.97
2018-06-08T16:19:35.399Z,29.37
2018-06-08T16:22:05.526Z,27.47
2018-06-08T16:24:35.188Z,30.30
2018-06-08T16:27:05.648Z,32.60
2018-06-08T16:29:35.695Z,31.10
2018-06-08T16:32:05.874Z,27.93
2018-06-08T16:34:36.481Z,29.57
2018-06-08T16:37:06.488Z,31.37
2018-06-08T16:39:36.598Z,31.80
2018-06-08T16:42:06.825Z,32.27
2018-06-08T16:44:36.744Z,31.73
2018-06-08T16:47:06.847Z,33.17
2018-06-08T16:49:57.054Z,35.07
2018-06-08T16:52:27.760Z,33.13
2018-06-08T16:54:57.921Z,34.03
2018-06-08T16:57:28.327Z,34.60
2018-06-08T16:59:59.014Z,35.10
2018-06-08T17:02:30.048Z,34.60
2018-06-08T17:05:00.351Z,36.67
2018-06-08T17:07:30.671Z,38.67
2018-06-08T17:10:01.357Z,37.27
2018-06-08T17:12:32.927Z,40.00
2018-06-08T17:15:03.325Z,40.43
2018-06-08T17:17:34.876Z,40.43
2018-06-08T17:20:05.510Z,39.40
2018-06-08T17:22:36.322Z,39.60
2018-06-08T17:25:06.992Z,41.47
2018-06-08T17:27:37.177Z,42.87
2018-06-08T17:30:08.167Z,42.97
2018-06-08T17:32:42.060Z,41.27
2018-06-08T17:35:13.565Z,41.50
2018-06-08T17:37:44.104Z,38.60
2018-06-08T17:40:14.195Z,46.30
2018-06-08T17:42:44.645Z,46.60
2018-06-08T17:45:14.703Z,46.90
2018-06-08T17:47:44.797Z,46.53
2018-06-08T17:50:15.232Z,48.63
2018-06-08T17:52:45.087Z,45.37
2018-06-08T17:55:17.851Z,46.40
2018-06-08T17:57:48.005Z,42.47
2018-06-08T18:00:18.019Z,45.77
2018-06-08T18:02:48.067Z,44.30
2018-06-08T18:05:17.776Z,44.67
2018-06-08T18:07:47.444Z,42.27
2018-06-08T18:10:17.518Z,42.50
2018-06-08T18:12:47.214Z,42.80
2018-06-08T18:15:16.889Z,44.07
2018-06-08T18:17:46.701Z,43.20
2018-06-08T18:20:16.947Z,38.23
2018-06-08T18:22:47.288Z,40.53
2018-06-08T18:25:17.597Z,42.23
2018-06-08T18:27:47.740Z,41.07
2018-06-08T18:30:18.145Z,41.80
2018-06-08T18:32:49.652Z,41.17
2018-06-08T18:35:21.549Z,41.73
2018-06-08T18:37:51.985Z,39.17
2018-06-08T18:40:23.393Z,39.30
2018-06-08T18:42:55.567Z,40.30
2018-06-08T18:45:31.650Z,41.80
2018-06-08T18:48:08.368Z,38.57
2018-06-08T18:50:41.704Z,38.83
2018-06-08T18:53:14.126Z,38.40
2018-06-08T18:55:44.291Z,38.90
2018-06-08T18:58:14.362Z,39.53
2018-06-08T19:00:44.296Z,37.90
2018-06-08T19:03:15.722Z,39.33
2018-06-08T19:05:45.650Z,38.33
2018-06-08T19:08:15.663Z,39.00
2018-06-08T19:10:45.438Z,38.97
2018-06-08T19:13:15.343Z,36.97
2018-06-08T19:15:45.152Z,36.43
2018-06-08T19:18:15.778Z,38.23
2018-06-08T19:20:45.674Z,38.77
2018-06-08T19:23:15.694Z,37.00
2018-06-08T19:25:45.494Z,39.43
2018-06-08T19:28:15.540Z,40.57
2018-06-08T19:30:45.829Z,41.43
2018-06-08T19:33:15.875Z,41.27
2018-06-08T19:35:45.982Z,43.63
2018-06-08T19:38:16.151Z,41.13
2018-06-08T19:40:46.200Z,43.73
2018-06-08T19:43:15.973Z,43.60
2018-06-08T19:45:48.561Z,43.07
2018-06-08T19:48:19.350Z,40.87
2018-06-08T19:50:49.807Z,45.00
2018-06-08T19:53:19.670Z,46.80
2018-06-08T19:55:49.876Z,43.60
2018-06-08T19:58:21.257Z,42.63
2018-06-08T20:00:51.162Z,44.70
2018-06-08T20:03:20.935Z,44.30
2018-06-08T20:05:50.774Z,47.00
2018-06-08T20:08:20.659Z,46.07
2018-06-08T20:10:50.494Z,43.87
2018-06-08T20:13:20.364Z,46.00
2018-06-08T20:15:51.090Z,49.70
2018-06-08T20:18:22.256Z,45.80
2018-06-08T20:23:46.108Z,48.27
2018-06-08T20:26:16.518Z,46.67
2018-06-08T20:28:59.907Z,42.87
2018-06-08T20:34:31.647Z,52.37
2018-06-08T20:37:01.724Z,49.00
2018-06-08T20:39:32.814Z,50.67
2018-06-08T20:42:30.823Z,51.27
2018-06-08T20:50:48.757Z,54.40
2018-06-08T20:53:29.809Z,50.60
2018-06-08T20:56:09.678Z,49.50
2018-06-08T21:03:43.385Z,48.47
2018-06-08T21:06:26.520Z,48.70
2018-06-08T21:09:08.935Z,51.23
2018-06-08T21:11:39.128Z,50.27
2018-06-08T21:14:09.083Z,52.80
2018-06-08T21:16:39.468Z,52.03
2018-06-08T21:19:10.531Z,51.00
2018-06-08T21:21:40.784Z,52.67
2018-06-08T21:24:10.815Z,52.40
2018-06-08T21:26:40.747Z,51.40
2018-06-08T21:29:12.033Z,52.80
2018-06-08T21:31:42.169Z,53.40
2018-06-08T21:34:12.243Z,54.07
2018-06-08T21:36:45.476Z,54.53
2018-06-08T21:39:15.249Z,51.10
2018-06-08T21:41:45.239Z,54.80
2018-06-08T21:44:15.901Z,54.10
2018-06-08T21:46:45.745Z,51.97
2018-06-08T21:49:16.491Z,54.23
2018-06-08T21:51:46.994Z,52.30
2018-06-08T21:54:16.819Z,56.10
2018-06-08T21:56:46.719Z,53.80
2018-06-08T21:59:16.626Z,55.70
2018-06-08T22:01:46.613Z,54.70
2018-06-08T22:04:16.447Z,52.70
2018-06-08T22:06:46.223Z,57.37
2018-06-08T22:09:18.863Z,55.37
2018-06-08T22:11:48.833Z,55.37
2018-06-08T22:14:18.793Z,57.70
2018-06-08T22:16:48.807Z,55.50
2018-06-08T22:19:19.648Z,55.30
2018-06-08T22:22:12.860Z,56.93
2018-06-08T22:24:42.812Z,52.43
2018-06-08T22:27:12.851Z,57.97
2018-06-08T22:29:43.044Z,55.90
2018-06-08T22:32:13.743Z,55.27
2018-06-08T22:34:43.776Z,54.10
2018-06-08T22:37:13.907Z,52.50
2018-06-08T22:39:44.111Z,53.23
2018-06-08T22:42:15.400Z,59.40
2018-06-08T22:44:45.290Z,56.37
2018-06-08T22:47:15.587Z,61.87
2018-06-08T22:49:45.466Z,58.10
2018-06-08T22:52:15.364Z,55.17
2018-06-08T22:54:45.187Z,60.10
2018-06-08T22:57:14.940Z,58.40
2018-06-08T22:59:45.083Z,59.30
2018-06-08T23:02:15.192Z,55.73
2018-06-08T23:04:45.770Z,66.30
2018-06-08T23:07:16.220Z,63.37
2018-06-08T23:09:46.409Z,58.40
2018-06-08T23:12:16.287Z,54.50
2018-06-08T23:14:46.201Z,55.37
2018-06-08T23:17:16.396Z,60.17
2018-06-08T23:19:46.304Z,61.87
2018-06-08T23:22:16.212Z,63.60
2018-06-08T23:24:45.967Z,61.40
2018-06-08T23:27:15.769Z,58.47
2018-06-08T23:29:45.658Z,59.87
2018-06-08T23:32:15.421Z,61.30
2018-06-08T23:34:46.011Z,53.33
2018-06-08T23:37:16.606Z,59.27
2018-06-08T23:39:47.399Z,57.27
2018-06-08T23:42:17.976Z,59.67
2018-06-08T23:44:47.920Z,56.60
2018-06-08T23:47:17.832Z,56.63
2018-06-08T23:49:48.585Z,61.23
2018-06-08T23:52:19.144Z,59.40
2018-06-08T23:54:49.113Z,60.63
2018-06-08T23:57:19.075Z,64.27
2018-06-08T23:59:49.051Z,64.33
